createdAt,value
2019-01-24T00:00:06.959Z,-2.30
2019-01-24T00:02:41.638Z,-2.30
2019-01-24T00:05:14.527Z,-2.30
2019-01-24T00:07:46.495Z,-2.20
2019-01-24T00:10:20.676Z,-2.30
2019-01-24T00:12:53.806Z,-2.20
2019-01-24T00:15:25.730Z,-2.20
2019-01-24T00:17:57.632Z,-2.20
2019-01-24T00:20:30.837Z,-2.20
2019-01-24T00:23:02.778Z,-2.20
2019-01-24T00:25:46.022Z,-2.20
2019-01-24T00:28:20.537Z,-2.20
2019-01-24T00:30:53.523Z,-2.10
2019-01-24T00:33:30.115Z,-2.20
2019-01-24T00:36:02.106Z,-2.10
2019-01-24T00:38:35.176Z,-2.10
2019-01-24T00:41:10.220Z,-2.10
2019-01-24T00:43:44.646Z,-2.20
2019-01-24T00:46:19.084Z,-2.20
2019-01-24T00:48:53.758Z,-2.20
2019-01-24T00:51:28.401Z,-2.20
2019-01-24T00:54:00.258Z,-2.10
2019-01-24T00:56:32.091Z,-2.10
2019-01-24T00:59:06.396Z,-2.10
2019-01-24T01:01:40.850Z,-2.00
2019-01-24T01:04:15.072Z,-2.00
2019-01-24T01:06:47.030Z,-2.00
2019-01-24T01:09:22.986Z,-1.90
2019-01-24T01:11:56.048Z,-1.90
2019-01-24T01:14:29.370Z,-1.90
2019-01-24T01:17:02.281Z,-1.90
2019-01-24T01:19:35.511Z,-2.00
2019-01-24T01:22:08.381Z,-2.00
2019-01-24T01:24:44.210Z,-2.00
2019-01-24T01:27:18.342Z,-2.00
2019-01-24T01:29:50.250Z,-2.00
2019-01-24T01:32:24.974Z,-1.90
2019-01-24T01:34:57.888Z,-1.90
2019-01-24T01:37:31.191Z,-1.90
2019-01-24T01:40:04.623Z,-1.90
2019-01-24T01:42:37.954Z,-1.80
2019-01-24T01:45:13.421Z,-1.80
2019-01-24T01:47:46.978Z,-1.80
2019-01-24T01:50:24.350Z,-1.80
2019-01-24T01:52:56.219Z,-1.80
2019-01-24T01:55:30.716Z,-1.80
2019-01-24T01:58:03.935Z,-1.80
2019-01-24T02:00:37.387Z,-1.90
2019-01-24T02:03:12.267Z,-1.90
2019-01-24T02:05:46.322Z,-2.00
2019-01-24T02:08:25.971Z,-2.00
2019-01-24T02:10:57.806Z,-2.00
2019-01-24T02:13:30.750Z,-2.00
2019-01-24T02:16:02.747Z,-2.00
2019-01-24T02:18:34.603Z,-2.00
2019-01-24T02:21:07.528Z,-2.00
2019-01-24T02:23:39.390Z,-2.10
2019-01-24T02:26:11.289Z,-2.00
2019-01-24T02:28:43.155Z,-2.10
2019-01-24T02:31:16.523Z,-2.10
2019-01-24T02:33:49.390Z,-2.00
2019-01-24T02:36:21.241Z,-2.00
2019-01-24T02:38:55.967Z,-2.00
2019-01-24T02:41:28.859Z,-1.90
2019-01-24T02:44:01.844Z,-1.90
2019-01-24T02:46:35.957Z,-1.90
2019-01-24T02:49:10.282Z,-1.90
2019-01-24T02:51:44.810Z,-1.80
2019-01-24T02:54:17.006Z,-1.80
2019-01-24T02:56:49.917Z,-1.80
2019-01-24T02:59:22.840Z,-1.70
2019-01-24T03:01:54.778Z,-1.70
2019-01-24T03:04:26.814Z,-1.80
2019-01-24T03:06:58.720Z,-1.70
2019-01-24T03:09:34.745Z,-1.80
2019-01-24T03:12:06.818Z,-1.70
2019-01-24T03:14:39.834Z,-1.70
2019-01-24T03:17:13.223Z,-1.70
2019-01-24T03:19:45.023Z,-1.70
2019-01-24T03:22:17.849Z,-1.70
2019-01-24T03:24:51.899Z,-1.70
2019-01-24T03:27:23.824Z,-1.80
2019-01-24T03:29:57.255Z,-1.80
2019-01-24T03:32:29.508Z,-1.80
2019-01-24T03:35:04.451Z,-1.70
2019-01-24T03:37:38.196Z,-1.80
2019-01-24T03:40:13.158Z,-1.70
2019-01-24T03:42:47.607Z,-1.80
2019-01-24T03:45:20.997Z,-1.80
2019-01-24T03:47:55.127Z,-1.80
2019-01-24T03:50:28.296Z,-1.70
2019-01-24T03:53:00.251Z,-1.70
2019-01-24T03:55:34.513Z,-1.70
2019-01-24T03:58:07.603Z,-1.80
2019-01-24T04:00:40.768Z,-1.80
2019-01-24T04:03:15.427Z,-1.80
2019-01-24T04:05:48.864Z,-1.80
2019-01-24T04:08:22.773Z,-1.90
2019-01-24T04:10:55.725Z,-1.90
2019-01-24T04:13:27.686Z,-1.90
2019-01-24T04:16:02.124Z,-2.00
2019-01-24T04:18:35.497Z,-2.00
2019-01-24T04:21:09.707Z,-2.00
2019-01-24T04:23:43.154Z,-2.00
2019-01-24T04:26:15.511Z,-2.00
2019-01-24T04:28:47.404Z,-2.00
2019-01-24T04:31:20.456Z,-1.90
2019-01-24T04:33:55.223Z,-1.90
2019-01-24T04:36:28.917Z,-1.90
2019-01-24T04:39:02.122Z,-1.90
2019-01-24T04:41:37.459Z,-1.90
2019-01-24T04:44:09.314Z,-1.80
2019-01-24T04:46:42.795Z,-1.80
2019-01-24T04:49:14.656Z,-1.80
2019-01-24T04:51:47.886Z,-1.80
2019-01-24T04:54:20.869Z,-1.80
2019-01-24T04:56:52.691Z,-1.80
2019-01-24T04:59:25.898Z,-2.00
2019-01-24T05:01:57.750Z,-1.90
2019-01-24T05:04:30.733Z,-1.90
2019-01-24T05:07:04.675Z,-1.90
2019-01-24T05:09:36.613Z,-1.90
2019-01-24T05:12:11.028Z,-1.90
2019-01-24T05:15:00.359Z,-2.00
2019-01-24T05:17:34.617Z,-2.00
2019-01-24T05:20:08.710Z,-2.00
2019-01-24T05:22:40.727Z,-2.00
2019-01-24T05:25:15.385Z,-1.90
2019-01-24T05:27:48.918Z,-1.90
2019-01-24T05:30:24.602Z,-1.80
2019-01-24T05:32:59.376Z,-1.70
2019-01-24T05:35:35.000Z,-1.60
2019-01-24T05:38:07.330Z,-1.60
2019-01-24T05:40:42.790Z,-1.60
2019-01-24T05:43:15.885Z,-1.60
2019-01-24T05:45:49.073Z,-1.60
2019-01-24T05:48:23.997Z,-1.50
2019-01-24T05:50:55.852Z,-1.50
2019-01-24T05:53:27.965Z,-1.50
2019-01-24T05:58:56.182Z,-1.50
2019-01-24T06:01:33.718Z,-1.50
2019-01-24T06:04:21.818Z,-1.50
2019-01-24T06:06:53.785Z,-1.60
2019-01-24T06:09:25.716Z,-1.60
2019-01-24T06:11:57.664Z,-1.60
2019-01-24T06:14:30.881Z,-1.60
2019-01-24T06:17:02.801Z,-1.70
2019-01-24T06:19:34.690Z,-1.80
2019-01-24T06:22:07.199Z,-1.80
2019-01-24T06:24:38.719Z,-2.00
2019-01-24T06:27:11.969Z,-2.00
2019-01-24T06:29:43.886Z,-2.00
2019-01-24T06:32:15.816Z,-2.00
2019-01-24T06:34:47.801Z,-2.00
2019-01-24T06:37:19.739Z,-2.00
2019-01-24T06:39:53.228Z,-2.00
2019-01-24T06:42:25.231Z,-1.90
2019-01-24T06:44:57.183Z,-1.90
2019-01-24T06:47:30.893Z,-1.80
2019-01-24T06:50:02.736Z,-1.80
2019-01-24T06:52:34.999Z,-1.80
2019-01-24T06:55:07.906Z,-1.70
2019-01-24T06:57:39.912Z,-1.70
2019-01-24T07:00:14.949Z,-1.70
2019-01-24T07:02:46.921Z,-1.70
2019-01-24T07:05:20.175Z,-1.60
2019-01-24T07:07:52.066Z,-1.60
2019-01-24T07:10:24.270Z,-1.60
2019-01-24T07:12:59.039Z,-1.60
2019-01-24T07:15:32.477Z,-1.60
2019-01-24T07:18:06.120Z,-1.70
2019-01-24T07:20:41.106Z,-1.70
2019-01-24T07:23:13.324Z,-1.80
2019-01-24T07:25:46.851Z,-1.80
2019-01-24T07:28:21.119Z,-1.70
2019-01-24T07:30:54.400Z,-1.80
2019-01-24T07:33:29.411Z,-1.90
2019-01-24T07:36:02.286Z,-1.90
2019-01-24T07:38:34.616Z,-1.80
2019-01-24T07:41:08.665Z,-1.80
2019-01-24T07:43:40.651Z,-1.70
2019-01-24T07:46:12.813Z,-1.70
2019-01-24T07:48:44.959Z,-1.70
2019-01-24T07:51:17.204Z,-1.70
2019-01-24T07:53:52.748Z,-1.60
2019-01-24T07:56:25.016Z,-1.60
2019-01-24T07:58:57.261Z,-1.70
2019-01-24T08:01:30.621Z,-1.60
2019-01-24T08:04:05.312Z,-1.60
2019-01-24T08:06:37.771Z,-1.50
2019-01-24T08:09:12.042Z,-1.50
2019-01-24T08:11:44.386Z,-1.40
2019-01-24T08:14:17.631Z,-1.40
2019-01-24T08:16:49.907Z,-1.40
2019-01-24T08:19:22.085Z,-1.40
2019-01-24T08:21:54.749Z,-1.30
2019-01-24T08:24:27.112Z,-1.10
2019-01-24T08:26:59.363Z,-1.00
2019-01-24T08:29:33.330Z,-0.90
2019-01-24T08:32:06.718Z,-0.90
2019-01-24T08:34:38.851Z,-0.80
2019-01-24T08:37:11.947Z,-0.70
2019-01-24T08:39:45.332Z,-0.60
2019-01-24T08:42:17.659Z,-0.40
2019-01-24T08:44:51.160Z,-0.40
2019-01-24T08:47:23.495Z,-0.30
2019-01-24T08:49:55.605Z,-0.30
2019-01-24T08:52:30.011Z,-0.20
2019-01-24T08:55:02.449Z,-0.20
2019-01-24T08:57:35.528Z,0.00
2019-01-24T09:00:09.064Z,0.10
2019-01-24T09:02:41.064Z,0.30
2019-01-24T09:05:14.555Z,0.20
2019-01-24T09:07:46.819Z,0.20
2019-01-24T09:10:22.227Z,0.10
2019-01-24T09:12:54.418Z,0.20
2019-01-24T09:15:26.700Z,0.30
2019-01-24T09:17:58.739Z,0.60
2019-01-24T09:20:31.139Z,0.80
2019-01-24T09:23:03.493Z,1.10
2019-01-24T09:25:35.737Z,1.20
2019-01-24T09:28:14.868Z,1.20
2019-01-24T09:30:43.379Z,1.40
2019-01-24T09:33:15.510Z,1.30
2019-01-24T09:35:49.905Z,1.30
2019-01-24T09:38:22.371Z,1.10
2019-01-24T09:40:54.440Z,1.00
2019-01-24T09:43:26.476Z,0.90
2019-01-24T09:46:00.151Z,1.10
2019-01-24T09:48:32.427Z,1.10
2019-01-24T09:51:04.771Z,1.30
2019-01-24T09:53:36.802Z,1.40
2019-01-24T09:56:10.166Z,1.40
2019-01-24T09:58:42.727Z,1.50
2019-01-24T10:01:16.103Z,1.50
2019-01-24T10:03:48.284Z,1.50
2019-01-24T10:06:20.547Z,1.50
2019-01-24T10:08:53.888Z,1.40
2019-01-24T10:11:25.945Z,1.50
2019-01-24T10:13:58.416Z,1.60
2019-01-24T10:16:30.547Z,1.60
2019-01-24T10:19:02.492Z,1.70
2019-01-24T10:21:34.837Z,1.70
2019-01-24T10:24:07.059Z,1.60
2019-01-24T10:26:39.229Z,1.60
2019-01-24T10:29:11.265Z,1.60
2019-01-24T10:31:43.552Z,1.70
2019-01-24T10:34:15.704Z,1.90
2019-01-24T10:36:48.191Z,2.10
2019-01-24T10:39:20.664Z,2.20
2019-01-24T10:41:52.865Z,2.40
2019-01-24T10:44:25.070Z,2.60
2019-01-24T10:46:58.455Z,2.70
2019-01-24T10:49:31.575Z,2.80
2019-01-24T10:52:04.741Z,2.90
2019-01-24T10:54:36.865Z,3.00
2019-01-24T10:57:10.223Z,3.10
2019-01-24T10:59:42.637Z,3.20
2019-01-24T11:02:17.031Z,3.20
2019-01-24T11:04:50.772Z,3.40
2019-01-24T11:07:22.799Z,3.40
2019-01-24T11:09:54.767Z,3.40
2019-01-24T11:12:27.997Z,3.40
2019-01-24T11:15:00.061Z,3.30
2019-01-24T11:17:33.774Z,3.30
2019-01-24T11:20:07.574Z,3.10
2019-01-24T11:22:39.666Z,3.00
2019-01-24T11:25:14.637Z,3.00
2019-01-24T11:27:48.639Z,2.90
2019-01-24T11:30:25.309Z,2.80
2019-01-24T11:32:59.090Z,2.80
2019-01-24T11:35:34.491Z,2.80
2019-01-24T11:38:07.334Z,2.70
2019-01-24T11:40:39.690Z,2.70
2019-01-24T11:43:11.942Z,2.60
2019-01-24T11:45:45.453Z,2.50
2019-01-24T11:48:19.256Z,2.40
2019-01-24T11:50:51.312Z,2.30
2019-01-24T11:53:24.583Z,2.30
2019-01-24T11:55:56.586Z,2.10
2019-01-24T11:58:28.704Z,2.10
2019-01-24T12:01:01.018Z,2.00
2019-01-24T12:03:33.088Z,2.00
2019-01-24T12:06:06.564Z,1.90
2019-01-24T12:08:39.597Z,1.90
2019-01-24T12:11:12.252Z,1.80
2019-01-24T12:13:46.644Z,1.80
2019-01-24T12:16:18.688Z,1.80
2019-01-24T12:18:52.214Z,1.80
2019-01-24T12:21:24.518Z,1.70
2019-01-24T12:23:58.119Z,1.70
2019-01-24T12:26:30.696Z,1.70
2019-01-24T12:29:03.802Z,1.70
2019-01-24T12:31:35.857Z,1.70
2019-01-24T12:34:09.200Z,1.60
2019-01-24T12:36:43.082Z,1.60
2019-01-24T12:39:17.586Z,1.50
2019-01-24T12:41:49.669Z,1.40
2019-01-24T12:44:22.992Z,1.40
2019-01-24T12:46:55.971Z,1.30
2019-01-24T12:49:28.233Z,1.30
2019-01-24T12:52:00.326Z,1.30
2019-01-24T12:54:32.294Z,1.20
2019-01-24T12:57:04.465Z,1.20
2019-01-24T12:59:36.798Z,1.20
2019-01-24T13:02:09.083Z,1.10
2019-01-24T13:04:41.285Z,1.10
2019-01-24T13:07:18.366Z,1.00
2019-01-24T13:09:47.095Z,1.00
2019-01-24T13:12:19.168Z,1.00
2019-01-24T13:14:50.788Z,1.00
2019-01-24T13:17:24.149Z,1.00
2019-01-24T13:19:55.983Z,1.00
2019-01-24T13:22:27.830Z,1.00
2019-01-24T13:24:59.742Z,1.00
2019-01-24T13:27:31.603Z,1.00
2019-01-24T13:30:03.628Z,1.00
2019-01-24T13:32:35.506Z,1.00
2019-01-24T13:35:09.132Z,1.00
2019-01-24T13:37:41.016Z,0.90
2019-01-24T13:40:15.224Z,0.80
2019-01-24T13:42:47.081Z,0.80
2019-01-24T13:45:21.360Z,0.80
2019-01-24T13:47:53.578Z,0.80
2019-01-24T13:50:25.556Z,0.70
2019-01-24T13:52:57.698Z,0.70
2019-01-24T13:55:29.603Z,0.70
2019-01-24T13:58:01.533Z,0.70
2019-01-24T14:00:38.246Z,0.60
2019-01-24T14:03:28.314Z,0.60
2019-01-24T14:06:00.272Z,0.50
2019-01-24T14:08:32.057Z,0.40
2019-01-24T14:11:03.959Z,0.50
2019-01-24T14:13:35.867Z,0.40
2019-01-24T14:16:07.791Z,0.40
2019-01-24T14:18:39.689Z,0.50
2019-01-24T14:21:11.531Z,0.50
2019-01-24T14:23:43.429Z,0.50
2019-01-24T14:26:15.446Z,0.50
2019-01-24T14:28:47.292Z,0.50
2019-01-24T14:31:19.240Z,0.50
2019-01-24T14:33:51.336Z,0.50
2019-01-24T14:36:25.366Z,0.50
2019-01-24T14:38:57.757Z,0.60
2019-01-24T14:41:30.925Z,0.60
2019-01-24T14:44:02.847Z,0.60
2019-01-24T14:46:34.778Z,0.60
2019-01-24T14:49:06.799Z,0.60
2019-01-24T14:51:38.684Z,0.60
2019-01-24T14:54:10.582Z,0.60
2019-01-24T14:56:42.532Z,0.60
2019-01-24T14:59:14.580Z,0.50
2019-01-24T15:01:46.562Z,0.50
2019-01-24T15:04:18.518Z,0.40
2019-01-24T15:06:50.467Z,0.40
2019-01-24T15:09:22.424Z,0.50
2019-01-24T15:11:54.398Z,0.40
2019-01-24T15:14:26.353Z,0.40
2019-01-24T15:16:58.255Z,0.40
2019-01-24T15:19:30.225Z,0.40
2019-01-24T15:22:02.104Z,0.30
2019-01-24T15:24:33.980Z,0.30
2019-01-24T15:27:06.013Z,0.30
2019-01-24T15:29:37.898Z,0.30
2019-01-24T15:32:09.826Z,0.30
2019-01-24T15:34:41.699Z,0.20
2019-01-24T15:37:13.680Z,0.20
2019-01-24T15:39:45.748Z,0.20
2019-01-24T15:42:17.673Z,0.20
2019-01-24T15:44:49.542Z,0.20
2019-01-24T15:47:21.520Z,0.20
2019-01-24T15:49:53.336Z,0.20
2019-01-24T15:52:25.323Z,0.20
2019-01-24T15:54:57.229Z,0.20
2019-01-24T15:57:29.180Z,0.10
2019-01-24T16:00:01.129Z,0.10
2019-01-24T16:02:33.040Z,0.10
2019-01-24T16:05:05.341Z,0.10
2019-01-24T16:07:37.209Z,0.10
2019-01-24T16:10:11.225Z,0.00
2019-01-24T16:12:46.279Z,0.00
2019-01-24T16:15:23.750Z,0.00
2019-01-24T16:17:55.653Z,0.00
2019-01-24T16:20:28.552Z,0.00
2019-01-24T16:23:00.699Z,-0.10
2019-01-24T16:25:33.316Z,0.00
2019-01-24T16:28:05.602Z,0.00
2019-01-24T16:30:38.387Z,0.00
2019-01-24T16:33:13.056Z,-0.10
2019-01-24T16:35:44.969Z,0.00
2019-01-24T16:38:16.833Z,0.00
2019-01-24T16:40:48.814Z,0.00
2019-01-24T16:43:20.746Z,0.00
2019-01-24T16:45:52.625Z,0.00
2019-01-24T16:48:26.187Z,0.00
2019-01-24T16:50:58.125Z,0.00
2019-01-24T16:53:31.249Z,0.00
2019-01-24T16:56:03.182Z,-0.10
2019-01-24T16:58:35.211Z,-0.10
2019-01-24T17:01:11.814Z,-0.10
2019-01-24T17:03:43.774Z,-0.10
2019-01-24T17:06:15.712Z,-0.10
2019-01-24T17:08:48.470Z,-0.20
2019-01-24T17:11:20.425Z,-0.20
2019-01-24T17:13:52.358Z,-0.20
2019-01-24T17:16:24.267Z,-0.30
2019-01-24T17:18:56.602Z,-0.30
2019-01-24T17:21:28.633Z,-0.20
2019-01-24T17:24:05.905Z,-0.20
2019-01-24T17:26:42.663Z,-0.20
2019-01-24T17:29:15.561Z,-0.30
2019-01-24T17:31:54.235Z,-0.30
2019-01-24T17:34:32.068Z,-0.40
2019-01-24T17:37:04.070Z,-0.40
2019-01-24T17:39:39.281Z,-0.40
2019-01-24T17:42:17.547Z,-0.50
2019-01-24T17:44:53.806Z,-0.60
2019-01-24T17:47:26.603Z,-0.60
2019-01-24T17:49:58.923Z,-0.60
2019-01-24T17:52:31.498Z,-0.70
2019-01-24T17:55:06.209Z,-0.70
2019-01-24T17:57:38.323Z,-0.70
2019-01-24T18:00:14.757Z,-0.70
2019-01-24T18:02:47.878Z,-0.80
2019-01-24T18:05:23.991Z,-0.80
2019-01-24T18:08:02.280Z,-0.90
2019-01-24T18:10:35.077Z,-0.90
2019-01-24T18:13:08.035Z,-0.80
2019-01-24T18:15:41.888Z,-0.90
2019-01-24T18:18:18.367Z,-1.00
2019-01-24T18:20:50.718Z,-0.90
2019-01-24T18:23:22.842Z,-1.00
2019-01-24T18:25:54.821Z,-1.00
2019-01-24T18:28:26.827Z,-1.00
2019-01-24T18:30:58.762Z,-1.10
2019-01-24T18:33:31.036Z,-1.10
2019-01-24T18:36:03.970Z,-1.10
2019-01-24T18:38:44.556Z,-1.10
2019-01-24T18:41:18.942Z,-1.10
2019-01-24T18:43:51.434Z,-1.10
2019-01-24T18:46:23.876Z,-1.10
2019-01-24T18:48:55.729Z,-1.20
2019-01-24T18:51:27.573Z,-1.20
2019-01-24T18:53:59.442Z,-1.20
2019-01-24T18:56:31.374Z,-1.20
2019-01-24T18:59:03.282Z,-1.20
2019-01-24T19:01:35.112Z,-1.20
2019-01-24T19:04:07.082Z,-1.20
2019-01-24T19:06:38.995Z,-1.20
2019-01-24T19:09:11.274Z,-1.20
2019-01-24T19:11:43.182Z,-1.10
2019-01-24T19:14:17.139Z,-1.10
2019-01-24T19:16:49.259Z,-1.10
2019-01-24T19:19:21.335Z,-1.10
2019-01-24T19:21:54.476Z,-1.00
2019-01-24T19:24:27.525Z,-1.00
2019-01-24T19:27:00.935Z,-1.00
2019-01-24T19:29:33.180Z,-1.00
2019-01-24T19:32:06.222Z,-1.00
2019-01-24T19:34:40.735Z,-1.00
2019-01-24T19:37:12.819Z,-1.00
2019-01-24T19:39:45.079Z,-1.00
2019-01-24T19:42:17.015Z,-1.10
2019-01-24T19:44:48.967Z,-1.20
2019-01-24T19:47:22.449Z,-1.20
2019-01-24T19:49:55.149Z,-1.20
2019-01-24T19:52:27.391Z,-1.20
2019-01-24T19:55:00.730Z,-1.20
2019-01-24T19:57:32.775Z,-1.20
2019-01-24T20:00:06.841Z,-1.30
2019-01-24T20:02:40.043Z,-1.30
2019-01-24T20:05:13.151Z,-1.30
2019-01-24T20:07:45.275Z,-1.30
2019-01-24T20:10:19.319Z,-1.30
2019-01-24T20:12:52.829Z,-1.30
2019-01-24T20:15:26.621Z,-1.30
2019-01-24T20:17:58.689Z,-1.30
2019-01-24T20:20:32.286Z,-1.40
2019-01-24T20:23:04.504Z,-1.40
2019-01-24T20:25:36.878Z,-1.40
2019-01-24T20:28:09.356Z,-1.40
2019-01-24T20:30:41.443Z,-1.40
2019-01-24T20:33:14.614Z,-1.40
2019-01-24T20:35:52.793Z,-1.40
2019-01-24T20:38:24.969Z,-1.50
2019-01-24T20:40:56.874Z,-1.50
2019-01-24T20:43:35.374Z,-1.50
2019-01-24T20:46:05.144Z,-1.60
2019-01-24T20:48:37.620Z,-1.50
2019-01-24T20:51:09.809Z,-1.60
2019-01-24T20:53:42.959Z,-1.70
2019-01-24T20:56:15.263Z,-1.70
2019-01-24T20:58:47.213Z,-1.70
2019-01-24T21:01:20.898Z,-1.70
2019-01-24T21:03:55.375Z,-1.70
2019-01-24T21:06:28.267Z,-1.70
2019-01-24T21:09:01.890Z,-1.70
2019-01-24T21:11:36.116Z,-1.70
2019-01-24T21:14:09.003Z,-1.70
2019-01-24T21:16:41.980Z,-1.70
2019-01-24T21:19:14.849Z,-1.80
2019-01-24T21:21:47.749Z,-1.80
2019-01-24T21:24:20.871Z,-1.80
2019-01-24T21:26:55.153Z,-1.90
2019-01-24T21:29:31.185Z,-1.90
2019-01-24T21:32:04.127Z,-1.80
2019-01-24T21:34:36.855Z,-1.80
2019-01-24T21:37:10.663Z,-1.80
2019-01-24T21:39:42.840Z,-1.90
2019-01-24T21:42:16.632Z,-1.90
2019-01-24T21:44:51.386Z,-1.90
2019-01-24T21:47:24.789Z,-1.90
2019-01-24T21:49:58.000Z,-1.90
2019-01-24T21:52:30.234Z,-1.90
2019-01-24T21:55:03.445Z,-1.90
2019-01-24T21:57:36.642Z,-1.90
2019-01-24T22:00:10.324Z,-1.90
2019-01-24T22:02:42.445Z,-1.90
2019-01-24T22:05:17.764Z,-1.90
2019-01-24T22:07:51.069Z,-2.00
2019-01-24T22:10:27.634Z,-2.10
2019-01-24T22:13:00.150Z,-2.00
2019-01-24T22:15:32.349Z,-2.10
2019-01-24T22:18:04.979Z,-2.10
2019-01-24T22:20:37.071Z,-2.10
2019-01-24T22:23:09.147Z,-2.10
2019-01-24T22:25:41.151Z,-2.10
2019-01-24T22:28:13.340Z,-2.20
2019-01-24T22:30:51.933Z,-2.20
2019-01-24T22:33:24.100Z,-2.20
2019-01-24T22:35:56.304Z,-2.20
2019-01-24T22:38:28.475Z,-2.20
2019-01-24T22:41:01.630Z,-2.20
2019-01-24T22:43:33.746Z,-2.20
2019-01-24T22:46:06.724Z,-2.20
2019-01-24T22:48:39.141Z,-2.20
2019-01-24T22:51:11.274Z,-2.20
2019-01-24T22:53:43.451Z,-2.20
2019-01-24T22:56:16.719Z,-2.20
2019-01-24T22:58:48.798Z,-2.10
2019-01-24T23:01:30.576Z,-2.10
2019-01-24T23:04:16.282Z,-2.00
2019-01-24T23:06:48.562Z,-2.10
2019-01-24T23:09:23.584Z,-2.10
2019-01-24T23:11:55.600Z,-2.10
2019-01-24T23:14:30.200Z,-2.10
2019-01-24T23:17:02.351Z,-2.10
2019-01-24T23:19:36.066Z,-2.10
2019-01-24T23:22:09.435Z,-2.10
2019-01-24T23:24:41.551Z,-2.00
2019-01-24T23:27:13.517Z,-2.00
2019-01-24T23:29:45.692Z,-2.10
2019-01-24T23:32:17.871Z,-2.00
2019-01-24T23:34:49.869Z,-2.10
2019-01-24T23:37:21.989Z,-2.10
2019-01-24T23:39:55.299Z,-2.10
2019-01-24T23:42:27.355Z,-2.10
2019-01-24T23:45:00.352Z,-2.10
2019-01-24T23:47:33.531Z,-2.10
2019-01-24T23:50:07.255Z,-2.00
2019-01-24T23:52:39.394Z,-2.00
2019-01-24T23:55:11.511Z,-2.00
2019-01-24T23:57:43.366Z,-2.00
